Miers Lake, Alaska
Current Conditions -  °F | °C
As of 12:53 AM on Saturday 25 Oct 2014 (Local Time) from PAOR Reporting Station
Light Snow Light Snow  
Wind Chill: 21°   Ceiling: 3500
Heat Index: 21°   Visibility: 4mi
Dew Point: 19°   Wind: 3mph
Humidity: 92%   Direction: 320°NW
Pressure: 29.88"   Gusts: NA
Location:  62.4028°N, 143.162°W
Report Text: PAOR 250853Z 32003KT 4SM -SN BKN035 OVC040 M06/M07 A2988 RMK AO2 SLP157 T10611072 410281094 51004
Loading
Personal Weather Stations






























Interactive Weather Map
Tropical Storm Tracking
New forecast layout! Learn more

10-Day Weather Forecast

Advertisements
Track Severe Weather on mobile